createdAt,value
2022-12-23T00:00:04.590Z,32.1
2022-12-23T00:01:15.013Z,32.4
2022-12-23T00:02:24.489Z,31.5
2022-12-23T00:03:34.651Z,32.3
2022-12-23T00:04:44.813Z,36.5
2022-12-23T00:05:55.075Z,34.5
2022-12-23T00:07:05.231Z,32.4
2022-12-23T00:08:15.370Z,31.7
2022-12-23T00:09:25.529Z,31.4
2022-12-23T00:10:35.635Z,32.6
2022-12-23T00:11:45.856Z,34.9
2022-12-23T00:12:55.977Z,36.2
2022-12-23T00:14:06.200Z,33.5
2022-12-23T00:15:16.356Z,33.6
2022-12-23T00:16:26.516Z,33.3
2022-12-23T00:17:36.637Z,31.7
2022-12-23T00:18:46.778Z,32.7
2022-12-23T00:19:56.955Z,31.5
2022-12-23T00:21:07.136Z,35.7
2022-12-23T00:22:17.276Z,35.8
2022-12-23T00:23:27.449Z,36.4
2022-12-23T00:24:37.591Z,33.6
2022-12-23T00:25:47.792Z,36.7
2022-12-23T00:26:57.936Z,34.4
2022-12-23T00:28:08.095Z,34
2022-12-23T00:29:18.257Z,34.4
2022-12-23T00:30:28.497Z,34.2
2022-12-23T00:31:38.657Z,35.1
2022-12-23T00:32:48.922Z,34.7
2022-12-23T00:33:59.236Z,32.3
2022-12-23T00:35:09.432Z,35.2
2022-12-23T00:36:19.697Z,36.2
2022-12-23T00:37:29.984Z,36
2022-12-23T00:38:40.134Z,34.3
2022-12-23T00:39:50.394Z,36.1
2022-12-23T00:41:00.698Z,38.5
2022-12-23T00:42:10.891Z,36.7
2022-12-23T00:43:21.214Z,35.8
2022-12-23T00:44:31.455Z,37.9
2022-12-23T00:45:41.606Z,36.8
2022-12-23T00:46:52.150Z,39
2022-12-23T00:48:02.547Z,37.6
2022-12-23T00:49:12.964Z,38.8
2022-12-23T00:50:23.352Z,38.5
2022-12-23T00:51:33.854Z,39
2022-12-23T00:52:44.193Z,39.2
2022-12-23T00:53:54.712Z,39.5
2022-12-23T00:55:05.057Z,39.6
2022-12-23T00:56:15.516Z,40.1
2022-12-23T00:57:25.937Z,37.4
2022-12-23T00:58:36.352Z,38.8
2022-12-23T00:59:46.795Z,38.7
2022-12-23T01:00:57.276Z,38.7
2022-12-23T01:03:36.958Z,38
2022-12-23T01:04:51.089Z,38.4
2022-12-23T01:06:05.246Z,37.6
2022-12-23T01:07:15.177Z,39.2
2022-12-23T01:08:25.524Z,37.8
2022-12-23T01:09:35.612Z,38.2
2022-12-23T01:11:56.107Z,39.1
2022-12-23T01:13:06.436Z,37
2022-12-23T01:14:16.705Z,37.7
2022-12-23T01:15:26.865Z,36
2022-12-23T01:16:37.089Z,38.8
2022-12-23T01:17:47.342Z,38.2
2022-12-23T01:18:57.636Z,38.8
2022-12-23T01:20:07.904Z,39
2022-12-23T01:21:18.072Z,38.6
2022-12-23T01:22:28.384Z,37.9
2022-12-23T01:23:38.559Z,37.9
2022-12-23T01:24:48.821Z,39.3
2022-12-23T01:25:59.096Z,39.4
2022-12-23T01:27:09.323Z,38.8
2022-12-23T01:28:19.566Z,38.2
2022-12-23T01:29:29.804Z,37.3
2022-12-23T01:30:40.040Z,39.7
2022-12-23T01:31:50.362Z,40.3
2022-12-23T01:33:00.625Z,40.6
2022-12-23T01:34:10.817Z,39.2
2022-12-23T01:35:21.085Z,38
2022-12-23T01:36:31.501Z,37.7
2022-12-23T01:37:41.886Z,39.1
2022-12-23T01:38:52.320Z,39.9
2022-12-23T01:40:02.764Z,40.7
2022-12-23T01:41:13.244Z,41.1
2022-12-23T01:42:23.622Z,39.1
2022-12-23T01:43:34.042Z,40.4
2022-12-23T01:44:44.472Z,40.3
2022-12-23T01:45:53.953Z,39.6
2022-12-23T01:47:04.042Z,38.3
2022-12-23T01:48:14.212Z,40
2022-12-23T01:49:24.296Z,39.4
2022-12-23T01:50:34.386Z,38.4
2022-12-23T01:52:54.630Z,39.6
2022-12-23T01:54:04.784Z,41.1
2022-12-23T01:55:14.886Z,40.2
2022-12-23T01:56:25.044Z,40.9
2022-12-23T01:57:35.061Z,40.6
2022-12-23T01:58:45.179Z,40.9
2022-12-23T01:59:55.318Z,39.8
2022-12-23T02:01:05.413Z,40.1
2022-12-23T02:02:15.545Z,41
2022-12-23T02:03:25.654Z,39.6
2022-12-23T02:04:35.757Z,40.8
2022-12-23T02:05:45.894Z,42.3
2022-12-23T02:06:56.019Z,41.4
2022-12-23T02:08:06.133Z,40.7
2022-12-23T02:09:16.222Z,41.2
2022-12-23T02:10:26.361Z,42.9
2022-12-23T02:11:36.459Z,41.8
2022-12-23T02:12:46.634Z,41.7
2022-12-23T02:13:56.765Z,42
2022-12-23T02:15:06.963Z,42.5
2022-12-23T02:16:17.048Z,44.6
2022-12-23T02:17:27.215Z,42.4
2022-12-23T02:18:37.346Z,43.2
2022-12-23T02:19:47.533Z,42.9
2022-12-23T02:20:57.697Z,43.6
2022-12-23T02:22:07.865Z,43.3
2022-12-23T02:23:18.017Z,43.3
2022-12-23T02:24:28.184Z,44.2
2022-12-23T02:25:38.329Z,45.1
2022-12-23T02:26:48.568Z,43.6
2022-12-23T02:27:58.664Z,45.7
2022-12-23T02:29:08.898Z,44.9
2022-12-23T02:30:19.083Z,44.4
2022-12-23T02:31:29.396Z,43.3
2022-12-23T02:32:39.557Z,42.9
2022-12-23T02:33:49.889Z,42.9
2022-12-23T02:35:00.117Z,44.8
2022-12-23T02:36:10.310Z,43.6
2022-12-23T02:37:20.604Z,45.6
2022-12-23T02:38:30.844Z,46.6
2022-12-23T02:39:41.043Z,46
2022-12-23T02:40:51.285Z,46.5
2022-12-23T02:42:01.538Z,46.1
2022-12-23T02:43:11.787Z,46.4
2022-12-23T02:44:22.015Z,46.4
2022-12-23T02:45:32.499Z,47.7
2022-12-23T02:47:09.051Z,45.5
2022-12-23T02:48:19.444Z,44.7
2022-12-23T02:49:29.909Z,47.3
2022-12-23T02:50:40.274Z,44.6
2022-12-23T02:51:50.740Z,47.3
2022-12-23T02:53:01.219Z,46.4
2022-12-23T02:54:11.604Z,47.3
2022-12-23T02:55:22.032Z,47.5
2022-12-23T02:56:32.443Z,46.7
2022-12-23T02:57:42.868Z,46.3
2022-12-23T02:58:53.324Z,46.3
2022-12-23T03:00:03.784Z,46.5
2022-12-23T03:02:43.665Z,46.9
2022-12-23T03:03:57.454Z,46.2
2022-12-23T03:05:07.892Z,47.5
2022-12-23T03:06:18.317Z,46.7
2022-12-23T03:07:28.844Z,47.9
2022-12-23T03:08:39.175Z,47.1
2022-12-23T03:09:49.692Z,49
2022-12-23T03:11:00.058Z,46.9
2022-12-23T03:12:10.485Z,48.1
2022-12-23T03:13:20.984Z,47.3
2022-12-23T03:14:31.404Z,48.2
2022-12-23T03:15:41.763Z,49.2
2022-12-23T03:16:52.285Z,48.9
2022-12-23T03:18:02.655Z,47.8
2022-12-23T03:19:13.073Z,49.6
2022-12-23T03:20:23.568Z,47.6
2022-12-23T03:21:33.935Z,48.9
2022-12-23T03:22:44.347Z,48.5
2022-12-23T03:23:54.840Z,50.3
2022-12-23T03:25:05.218Z,49
2022-12-23T03:26:15.699Z,50
2022-12-23T03:27:26.098Z,51.6
2022-12-23T03:28:36.510Z,52.4
2022-12-23T03:29:46.957Z,51.3
2022-12-23T03:30:57.427Z,49.4
2022-12-23T03:32:07.884Z,52.8
2022-12-23T03:34:07.622Z,52.1
2022-12-23T03:35:18.425Z,50.8
2022-12-23T03:36:28.184Z,52
2022-12-23T03:37:38.333Z,51.8
2022-12-23T03:38:48.521Z,49.9
2022-12-23T03:39:58.769Z,51.8
2022-12-23T03:41:08.846Z,52.1
2022-12-23T03:42:19.037Z,52.9
2022-12-23T03:43:29.218Z,52.3
2022-12-23T03:44:39.303Z,51.1
2022-12-23T03:45:49.489Z,52.8
2022-12-23T03:46:59.660Z,52.6
2022-12-23T03:48:09.810Z,52.8
2022-12-23T03:49:19.977Z,55.5
2022-12-23T03:50:30.137Z,57.4
2022-12-23T03:51:40.293Z,55.9
2022-12-23T03:52:50.526Z,55.5
2022-12-23T03:54:00.619Z,56.6
2022-12-23T03:55:10.847Z,56.3
2022-12-23T03:56:20.997Z,58.4
2022-12-23T03:57:31.115Z,57
2022-12-23T03:58:41.261Z,57.9
2022-12-23T03:59:51.445Z,59.7
2022-12-23T04:01:01.637Z,55.8
2022-12-23T04:02:11.796Z,56.3
2022-12-23T04:03:21.978Z,55.4
2022-12-23T04:04:32.089Z,59.8
2022-12-23T04:05:42.329Z,58.8
2022-12-23T04:06:52.587Z,57.5
2022-12-23T04:08:02.845Z,57.1
2022-12-23T04:09:13.094Z,56.1
2022-12-23T04:10:23.377Z,56.7
2022-12-23T04:11:33.618Z,58
2022-12-23T04:12:43.804Z,56.1
2022-12-23T04:13:54.068Z,59.3
2022-12-23T04:15:04.319Z,57
2022-12-23T04:16:14.567Z,56.6
2022-12-23T04:17:24.878Z,59.1
2022-12-23T04:18:35.032Z,57.1
2022-12-23T04:19:45.280Z,57.5
2022-12-23T04:20:55.714Z,58.4
2022-12-23T04:22:06.221Z,59
2022-12-23T04:23:16.646Z,58.6
2022-12-23T04:24:27.042Z,57.1
2022-12-23T04:25:37.437Z,56.6
2022-12-23T04:26:47.927Z,59.2
2022-12-23T04:27:58.324Z,57.4
2022-12-23T04:29:08.797Z,59.6
2022-12-23T04:30:19.244Z,59.4
2022-12-23T04:31:29.670Z,58.5
2022-12-23T04:32:40.040Z,58.6
2022-12-23T04:33:50.480Z,57
2022-12-23T04:35:00.972Z,60
2022-12-23T04:37:40.218Z,59
2022-12-23T04:38:53.987Z,60.6
2022-12-23T04:40:04.407Z,60.4
2022-12-23T04:41:14.973Z,59.7
2022-12-23T04:42:25.282Z,63.8
2022-12-23T04:43:35.687Z,60.2
2022-12-23T04:44:46.142Z,61.3
2022-12-23T04:45:56.618Z,63
2022-12-23T04:47:07.070Z,62.3
2022-12-23T04:48:17.438Z,61.7
2022-12-23T04:49:27.898Z,60.6
2022-12-23T04:50:38.277Z,61.6
2022-12-23T04:51:48.729Z,60
2022-12-23T04:52:59.224Z,63
2022-12-23T04:54:09.621Z,61.9
2022-12-23T04:55:20.001Z,62.4
2022-12-23T04:56:30.562Z,64.6
2022-12-23T04:57:40.858Z,65
2022-12-23T04:58:51.331Z,65.2
2022-12-23T05:00:01.769Z,64.9
2022-12-23T05:01:12.217Z,63.2
2022-12-23T05:02:22.642Z,64.3
2022-12-23T05:03:33.128Z,65.3
2022-12-23T05:04:43.439Z,63.8
2022-12-23T05:05:53.885Z,61.7
2022-12-23T05:07:04.383Z,68.1
2022-12-23T05:09:04.161Z,65.1
2022-12-23T05:10:13.881Z,62.9
2022-12-23T05:11:24.124Z,64.2
2022-12-23T05:12:34.225Z,63
2022-12-23T05:13:44.383Z,64.2
2022-12-23T05:14:54.541Z,64
2022-12-23T05:16:04.755Z,67.9
2022-12-23T05:17:14.864Z,65.7
2022-12-23T05:18:25.124Z,64.1
2022-12-23T05:19:35.170Z,66.6
2022-12-23T05:20:45.342Z,65.9
2022-12-23T05:21:55.638Z,66
2022-12-23T05:23:05.672Z,67.4
2022-12-23T05:24:15.922Z,66.7
2022-12-23T05:25:26.002Z,65.6
2022-12-23T05:26:36.157Z,67.9
2022-12-23T05:27:46.332Z,64.8
2022-12-23T05:28:56.509Z,68.4
2022-12-23T05:30:06.673Z,66.7
2022-12-23T05:31:16.839Z,67.3
2022-12-23T05:32:27.008Z,64.9
2022-12-23T05:33:37.130Z,68.4
2022-12-23T05:34:47.302Z,66.2
2022-12-23T05:35:57.594Z,69.4
2022-12-23T05:37:07.634Z,66.1
2022-12-23T05:38:17.798Z,66.7
2022-12-23T05:39:28.041Z,69
2022-12-23T05:40:38.290Z,68.1
2022-12-23T05:41:48.539Z,69.2
2022-12-23T05:42:58.770Z,65.3
2022-12-23T05:44:09.141Z,67.1
2022-12-23T05:45:19.380Z,67.9
2022-12-23T05:46:29.531Z,65.8
2022-12-23T05:47:39.759Z,67.4
2022-12-23T05:48:50.096Z,66.4
2022-12-23T05:50:00.313Z,68.6
2022-12-23T05:51:10.563Z,68.2
2022-12-23T05:52:20.753Z,70.5
2022-12-23T05:53:31.040Z,68.3
2022-12-23T05:54:41.420Z,67.3
2022-12-23T05:55:51.912Z,64.7
2022-12-23T05:57:02.302Z,65.1
2022-12-23T05:58:12.739Z,67.3
2022-12-23T05:59:23.192Z,60.7
2022-12-23T06:00:33.773Z,64.5
2022-12-23T06:01:44.019Z,63.7
2022-12-23T06:02:54.445Z,61.8
2022-12-23T06:04:04.891Z,63.2
2022-12-23T06:05:15.351Z,61.3
2022-12-23T06:06:24.793Z,65.5
2022-12-23T06:07:34.944Z,63.8
2022-12-23T06:08:45.105Z,63.6
2022-12-23T06:09:55.294Z,63.6
2022-12-23T06:11:05.446Z,63.5
2022-12-23T06:12:15.666Z,63.7
2022-12-23T06:13:25.818Z,62.2
2022-12-23T06:14:35.928Z,63.5
2022-12-23T06:15:46.140Z,61
2022-12-23T06:16:56.270Z,61.3
2022-12-23T06:18:06.457Z,60.9
2022-12-23T06:19:16.588Z,62.2
2022-12-23T06:20:26.754Z,66.6
2022-12-23T06:21:36.894Z,61.7
2022-12-23T06:22:47.123Z,62.9
2022-12-23T06:23:57.293Z,65.2
2022-12-23T06:25:07.405Z,63.1
2022-12-23T06:26:17.617Z,61.4
2022-12-23T06:27:27.777Z,62.9
2022-12-23T06:28:37.885Z,63.2
2022-12-23T06:29:48.056Z,69.3
2022-12-23T06:30:58.270Z,61.3
2022-12-23T06:32:08.375Z,61.6
2022-12-23T06:33:18.591Z,61.1
2022-12-23T06:35:38.950Z,57.5
2022-12-23T06:36:49.199Z,56
2022-12-23T06:37:59.530Z,56.5
2022-12-23T06:39:09.680Z,57
2022-12-23T06:40:19.990Z,54.9
2022-12-23T06:41:30.180Z,55.3
2022-12-23T06:42:40.419Z,55.8
2022-12-23T06:43:50.682Z,58.6
2022-12-23T06:45:00.930Z,58.2
2022-12-23T06:46:11.172Z,57.8
2022-12-23T06:47:21.410Z,54
2022-12-23T06:48:31.658Z,57.6
2022-12-23T06:49:41.885Z,55.4
2022-12-23T06:50:52.348Z,56.2
2022-12-23T06:52:02.781Z,56.8
2022-12-23T06:53:13.323Z,52
2022-12-23T06:54:23.704Z,51
2022-12-23T06:55:34.072Z,51.1
2022-12-23T06:56:44.481Z,51.8
2022-12-23T06:57:54.984Z,52.7
2022-12-23T06:59:05.358Z,56.6
2022-12-23T07:00:15.866Z,54.5
2022-12-23T07:01:26.272Z,55.8
2022-12-23T07:02:36.640Z,57.3
2022-12-23T07:03:47.123Z,57.1
2022-12-23T07:04:57.607Z,58.9
2022-12-23T07:07:36.885Z,55.4
2022-12-23T07:08:50.716Z,58.3
2022-12-23T07:10:01.158Z,57.2
2022-12-23T07:11:11.547Z,56.7
2022-12-23T07:12:21.983Z,54.8
2022-12-23T07:13:32.505Z,56.9
2022-12-23T07:14:42.820Z,63.4
2022-12-23T07:15:53.266Z,59.2
2022-12-23T07:17:03.703Z,57.2
2022-12-23T07:18:14.158Z,57.4
2022-12-23T07:19:24.559Z,61.4
2022-12-23T07:20:34.976Z,57.4
2022-12-23T07:21:45.423Z,56.8
2022-12-23T07:22:56.088Z,61.8
2022-12-23T07:24:06.284Z,53.5
2022-12-23T07:25:16.707Z,58.5
2022-12-23T07:26:27.219Z,56.6
2022-12-23T07:27:37.568Z,57.8
2022-12-23T07:28:48.109Z,54.9
2022-12-23T07:29:58.447Z,53.8
2022-12-23T07:31:08.877Z,56.4
2022-12-23T07:32:19.342Z,55.3
2022-12-23T07:33:29.816Z,55.7
2022-12-23T07:34:40.143Z,55.8
2022-12-23T07:35:50.651Z,54.9
2022-12-23T07:37:01.021Z,54.1
2022-12-23T07:39:00.763Z,52.8
2022-12-23T07:40:10.783Z,57.8
2022-12-23T07:41:20.991Z,54.4
2022-12-23T07:42:31.230Z,53.1
2022-12-23T07:43:41.410Z,51
2022-12-23T07:44:51.675Z,52.1
2022-12-23T07:46:01.923Z,52.5
2022-12-23T07:47:12.163Z,52.8
2022-12-23T07:48:22.413Z,52.1
2022-12-23T07:49:32.706Z,53.9
2022-12-23T07:50:42.878Z,52.4
2022-12-23T07:51:53.155Z,52.3
2022-12-23T07:53:03.442Z,51.2
2022-12-23T07:54:13.621Z,49.8
2022-12-23T07:55:23.932Z,49.1
2022-12-23T07:56:34.164Z,49.9
2022-12-23T07:57:44.354Z,54.3
2022-12-23T07:58:54.616Z,52.7
2022-12-23T08:00:04.866Z,50.3
2022-12-23T08:01:15.152Z,53.6
2022-12-23T08:02:25.366Z,51.1
2022-12-23T08:03:35.587Z,50.8
2022-12-23T08:04:45.885Z,53.5
2022-12-23T08:05:56.075Z,54.2
2022-12-23T08:07:06.347Z,51.6
2022-12-23T08:08:16.575Z,49
2022-12-23T08:09:27.056Z,47.3
2022-12-23T08:10:37.439Z,49
2022-12-23T08:11:47.936Z,49.2
2022-12-23T08:12:58.363Z,45.6
2022-12-23T08:14:08.744Z,48.2
2022-12-23T08:15:19.165Z,49.8
2022-12-23T08:16:29.644Z,48.3
2022-12-23T08:17:40.016Z,46.6
2022-12-23T08:18:50.537Z,46.7
2022-12-23T08:20:00.904Z,48.7
2022-12-23T08:21:11.386Z,44.7
2022-12-23T08:22:21.805Z,46.8
2022-12-23T08:23:32.185Z,48.4
2022-12-23T08:26:11.940Z,46.1
2022-12-23T08:27:21.763Z,47.2
2022-12-23T08:28:31.894Z,43.1
2022-12-23T08:29:42.040Z,46.1
2022-12-23T08:30:52.220Z,46.3
2022-12-23T08:32:02.380Z,47.2
2022-12-23T08:33:12.532Z,45.2
2022-12-23T08:34:22.760Z,46.6
2022-12-23T08:35:32.852Z,44.8
2022-12-23T08:36:43.024Z,45.1
2022-12-23T08:37:53.240Z,43.6
2022-12-23T08:39:03.351Z,42.9
2022-12-23T08:40:13.598Z,43.8
2022-12-23T08:41:23.673Z,42.5
2022-12-23T08:42:33.897Z,44.4
2022-12-23T08:43:43.992Z,45.4
2022-12-23T08:44:54.243Z,45.2
2022-12-23T08:46:04.340Z,44.8
2022-12-23T08:47:14.487Z,44.8
2022-12-23T08:48:24.657Z,41.5
2022-12-23T08:50:44.976Z,46.1
2022-12-23T08:51:55.211Z,43.6
2022-12-23T08:53:05.338Z,42.9
2022-12-23T08:54:15.467Z,42
2022-12-23T08:55:25.700Z,41.7
2022-12-23T08:56:35.874Z,41.3
2022-12-23T08:57:46.120Z,39.7
2022-12-23T08:58:56.480Z,41.1
2022-12-23T09:00:06.680Z,39.1
2022-12-23T09:01:16.880Z,39.2
2022-12-23T09:02:27.161Z,38.2
2022-12-23T09:03:37.351Z,38.8
2022-12-23T09:04:47.592Z,37.6
2022-12-23T09:05:57.852Z,38.3
2022-12-23T09:07:08.100Z,37.6
2022-12-23T09:08:18.362Z,43.2
2022-12-23T09:09:28.609Z,42.1
2022-12-23T09:10:38.823Z,41.1
2022-12-23T09:11:49.274Z,40.4
2022-12-23T09:12:59.773Z,36.1
2022-12-23T09:14:10.137Z,39.4
2022-12-23T09:15:20.636Z,37.7
2022-12-23T09:16:30.998Z,41
2022-12-23T09:17:41.414Z,40.1
2022-12-23T09:18:51.860Z,39.4
2022-12-23T09:20:02.280Z,37.7
2022-12-23T09:21:12.799Z,36.7
2022-12-23T09:22:23.205Z,40.3
2022-12-23T09:23:33.645Z,39.1
2022-12-23T09:24:44.013Z,37.6
2022-12-23T09:25:54.447Z,38.6
2022-12-23T09:28:33.688Z,37.4
2022-12-23T09:29:47.773Z,39.2
2022-12-23T09:31:01.400Z,39.3
2022-12-23T09:32:11.613Z,40.2
2022-12-23T09:33:21.886Z,37.8
2022-12-23T09:34:32.097Z,38.5
2022-12-23T09:35:42.306Z,39.4
2022-12-23T09:36:52.557Z,39.1
2022-12-23T09:38:02.878Z,40.5
2022-12-23T09:39:13.069Z,38
2022-12-23T09:40:23.318Z,40.8
2022-12-23T09:41:33.548Z,40
2022-12-23T09:42:43.788Z,41.1
2022-12-23T09:43:54.050Z,40.5
2022-12-23T09:45:04.407Z,39.9
2022-12-23T09:46:14.544Z,40.7
2022-12-23T09:47:24.841Z,43
2022-12-23T09:48:35.028Z,43.4
2022-12-23T09:49:45.268Z,43
2022-12-23T09:50:55.578Z,42.2
2022-12-23T09:52:05.820Z,41
2022-12-23T09:53:15.996Z,41.8
2022-12-23T09:54:26.306Z,39.7
2022-12-23T09:55:36.493Z,40.6
2022-12-23T09:56:46.768Z,40.8
2022-12-23T09:57:57.039Z,41.5
2022-12-23T09:59:07.256Z,42.1
2022-12-23T10:00:17.662Z,40.8
2022-12-23T10:01:28.106Z,40.1
2022-12-23T10:02:38.524Z,41.2
2022-12-23T10:03:49.031Z,38.9
2022-12-23T10:04:59.401Z,39.6
2022-12-23T10:06:09.825Z,38.3
2022-12-23T10:07:20.304Z,40.8
2022-12-23T10:08:30.753Z,39.2
2022-12-23T10:09:41.111Z,40
2022-12-23T10:10:51.614Z,41.7
2022-12-23T10:12:01.986Z,41.9
2022-12-23T10:13:12.517Z,40.2
2022-12-23T10:14:22.901Z,42.2
2022-12-23T10:17:02.036Z,42.2
2022-12-23T10:18:16.196Z,41.9
2022-12-23T10:19:29.704Z,43.7
2022-12-23T10:20:39.953Z,41.5
2022-12-23T10:21:50.196Z,40.8
2022-12-23T10:23:00.503Z,43.7
2022-12-23T10:24:10.744Z,41.2
2022-12-23T10:25:20.944Z,42.3
2022-12-23T10:26:31.234Z,43.1
2022-12-23T10:27:41.422Z,42.6
2022-12-23T10:28:51.685Z,42.2
2022-12-23T10:30:01.934Z,40.9
2022-12-23T10:31:12.181Z,40.8
2022-12-23T10:32:22.000Z,40.2
2022-12-23T10:33:32.646Z,39.4
2022-12-23T10:34:42.892Z,39.7
2022-12-23T10:35:53.203Z,38.9
2022-12-23T10:37:03.450Z,39.9
2022-12-23T10:38:13.703Z,37.9
2022-12-23T10:39:23.893Z,37.9
2022-12-23T10:40:34.125Z,38
2022-12-23T10:41:44.368Z,36.8
2022-12-23T10:42:54.673Z,38.1
2022-12-23T10:44:04.920Z,37.6
2022-12-23T10:45:15.110Z,37.3
2022-12-23T10:46:25.362Z,38.3
2022-12-23T10:47:35.783Z,38.3
2022-12-23T10:48:46.069Z,38.5
2022-12-23T10:49:56.521Z,39.1
2022-12-23T10:51:06.892Z,39.6
2022-12-23T10:52:17.342Z,40.2
2022-12-23T10:53:27.812Z,40.4
2022-12-23T10:54:38.188Z,40.3
2022-12-23T10:55:48.698Z,38.5
2022-12-23T10:56:59.127Z,40.3
2022-12-23T10:58:09.503Z,39.4
2022-12-23T10:59:19.932Z,39.4
2022-12-23T11:00:30.410Z,37.8
2022-12-23T11:01:40.774Z,38.5
2022-12-23T11:02:51.271Z,40.1
2022-12-23T11:05:30.189Z,40
2022-12-23T11:06:43.927Z,40.9
2022-12-23T11:07:54.371Z,39.2
2022-12-23T11:09:03.944Z,40.2
2022-12-23T11:10:14.191Z,40.9
2022-12-23T11:11:24.470Z,39.4
2022-12-23T11:12:34.804Z,40.3
2022-12-23T11:13:44.899Z,40.8
2022-12-23T11:14:55.230Z,39.5
2022-12-23T11:16:05.512Z,39.7
2022-12-23T11:17:15.651Z,42.5
2022-12-23T11:18:25.953Z,41.5
2022-12-23T11:19:36.134Z,38
2022-12-23T11:20:46.431Z,37.8
2022-12-23T11:21:56.647Z,38.5
2022-12-23T11:23:06.889Z,37.9
2022-12-23T11:24:17.127Z,38.5
2022-12-23T11:25:27.387Z,39.8
2022-12-23T11:26:37.608Z,37.6
2022-12-23T11:27:47.926Z,39.3
2022-12-23T11:28:58.108Z,37.1
2022-12-23T11:30:08.449Z,36.7
2022-12-23T11:31:18.647Z,37
2022-12-23T11:32:28.839Z,34.8
2022-12-23T11:33:39.085Z,34.7
2022-12-23T11:34:49.388Z,34.2
2022-12-23T11:35:59.661Z,33
2022-12-23T11:37:09.921Z,30
2022-12-23T11:38:20.313Z,31.7
2022-12-23T11:39:30.792Z,33.2
2022-12-23T11:40:41.115Z,31.6
2022-12-23T11:41:51.572Z,33.4
2022-12-23T11:43:00.996Z,33.3
2022-12-23T11:44:11.166Z,33.5
2022-12-23T11:45:21.234Z,33.1
2022-12-23T11:46:31.327Z,32.7
2022-12-23T11:48:51.575Z,32.4
2022-12-23T11:50:01.741Z,31.1
2022-12-23T11:51:11.807Z,31.6
2022-12-23T11:52:21.976Z,31.8
2022-12-23T11:53:32.052Z,30.5
2022-12-23T11:54:42.139Z,31.5
2022-12-23T11:55:52.383Z,31.4
2022-12-23T11:57:02.444Z,30.7
2022-12-23T11:58:12.565Z,30.4
2022-12-23T11:59:22.630Z,30.4
2022-12-23T12:00:32.804Z,31
2022-12-23T12:01:42.844Z,30.6
2022-12-23T12:02:52.976Z,31.8
2022-12-23T12:04:03.139Z,32.6
2022-12-23T12:05:13.283Z,30.8
2022-12-23T12:06:23.382Z,31.1
2022-12-23T12:07:33.444Z,31
2022-12-23T12:08:43.549Z,32.2
2022-12-23T12:09:53.683Z,30.9
2022-12-23T12:11:03.886Z,33.1
2022-12-23T12:12:14.043Z,32.8
2022-12-23T12:13:24.138Z,31.3
2022-12-23T12:14:34.297Z,32.3
2022-12-23T12:15:44.431Z,34
2022-12-23T12:16:54.613Z,32
2022-12-23T12:18:04.834Z,33.8
2022-12-23T12:19:14.994Z,34.6
2022-12-23T12:20:25.195Z,34.8
2022-12-23T12:21:35.358Z,35.3
2022-12-23T12:22:45.443Z,37
2022-12-23T12:23:55.657Z,33.5
2022-12-23T12:25:05.825Z,33.1
2022-12-23T12:26:15.987Z,34.6
2022-12-23T12:27:26.217Z,31.5
2022-12-23T12:28:36.404Z,31.8
2022-12-23T12:29:46.723Z,32.6
2022-12-23T12:30:56.956Z,33.4
2022-12-23T12:32:07.207Z,32.7
2022-12-23T12:33:17.383Z,36.7
2022-12-23T12:34:27.656Z,37.1
2022-12-23T12:35:37.870Z,34.9
2022-12-23T12:36:48.147Z,42.1
2022-12-23T12:37:58.388Z,40.5
2022-12-23T12:39:08.628Z,39.7
2022-12-23T12:40:18.928Z,39.3
2022-12-23T12:41:29.178Z,37.6
2022-12-23T12:42:39.534Z,38.2
2022-12-23T12:44:16.156Z,39.1
2022-12-23T12:45:26.611Z,42.7
2022-12-23T12:46:36.946Z,38.5
2022-12-23T12:47:47.383Z,48.6
2022-12-23T12:48:57.864Z,44.4
2022-12-23T12:50:08.293Z,38.6
2022-12-23T12:51:18.734Z,33.4
2022-12-23T12:52:29.114Z,33.8
2022-12-23T12:53:39.526Z,32.6
2022-12-23T12:54:50.035Z,32.6
2022-12-23T12:56:00.446Z,32.7
2022-12-23T12:57:10.826Z,32.1
2022-12-23T12:59:50.512Z,31.3
2022-12-23T13:01:04.046Z,32.4
2022-12-23T13:02:14.229Z,33.3
2022-12-23T13:03:24.366Z,34.1
2022-12-23T13:04:34.476Z,34.4
2022-12-23T13:05:44.639Z,34.7
2022-12-23T13:06:54.832Z,35.1
2022-12-23T13:08:04.991Z,34.6
2022-12-23T13:09:15.195Z,33.1
2022-12-23T13:10:25.341Z,32.8
2022-12-23T13:11:35.577Z,31.7
2022-12-23T13:12:45.643Z,33.6
2022-12-23T13:13:55.961Z,31.1
2022-12-23T13:15:05.952Z,31.1
2022-12-23T13:16:16.180Z,29.5
2022-12-23T13:17:26.341Z,30.2
2022-12-23T13:18:36.463Z,29.6
2022-12-23T13:19:46.653Z,29.9
2022-12-23T13:20:56.784Z,30.7
2022-12-23T13:22:06.944Z,28.9
2022-12-23T13:23:17.100Z,29.5
2022-12-23T13:24:27.270Z,25.6
2022-12-23T13:25:37.417Z,26.6
2022-12-23T13:26:47.595Z,29.7
2022-12-23T13:27:57.804Z,30
2022-12-23T13:29:07.907Z,29.2
2022-12-23T13:30:18.206Z,26.8
2022-12-23T13:31:28.444Z,26.9
2022-12-23T13:32:38.643Z,25
2022-12-23T13:33:48.913Z,26.1
2022-12-23T13:34:59.136Z,25.7
2022-12-23T13:36:09.439Z,25.4
2022-12-23T13:37:19.707Z,24.6
2022-12-23T13:38:29.884Z,24.3
2022-12-23T13:39:40.113Z,26
2022-12-23T13:40:50.387Z,24.5
2022-12-23T13:42:00.667Z,26.3
2022-12-23T13:43:10.867Z,27.4
2022-12-23T13:44:21.165Z,25.8
2022-12-23T13:45:31.555Z,25.6
2022-12-23T13:46:41.960Z,26
2022-12-23T13:47:52.397Z,25.5
2022-12-23T13:49:02.848Z,26.6
2022-12-23T13:50:13.327Z,27.1
2022-12-23T13:51:23.698Z,27.5
2022-12-23T13:52:34.186Z,26.9
2022-12-23T13:53:44.558Z,27.7
2022-12-23T13:54:55.007Z,27.8
2022-12-23T13:56:04.448Z,26.6
2022-12-23T13:57:14.591Z,27.2
2022-12-23T13:58:24.738Z,28.2
2022-12-23T13:59:34.783Z,28.6
2022-12-23T14:00:44.903Z,28.3
2022-12-23T14:01:55.025Z,28.6
2022-12-23T14:03:05.109Z,28.5
2022-12-23T14:04:15.255Z,29.1
2022-12-23T14:05:25.365Z,27.4
2022-12-23T14:06:35.488Z,27.1
2022-12-23T14:07:45.583Z,28.4
2022-12-23T14:08:55.715Z,29.5
2022-12-23T14:10:05.836Z,27.3
2022-12-23T14:11:16.054Z,28.9
2022-12-23T14:12:26.117Z,30.7
2022-12-23T14:13:36.158Z,31.6
2022-12-23T14:14:46.331Z,32.1
2022-12-23T14:15:56.410Z,34.7
2022-12-23T14:17:06.583Z,35.4
2022-12-23T14:18:16.634Z,34.2
2022-12-23T14:19:26.795Z,33.5
2022-12-23T14:20:36.853Z,32.5
2022-12-23T14:21:46.990Z,30.9
2022-12-23T14:22:57.126Z,30.9
2022-12-23T14:24:07.235Z,29.5
2022-12-23T14:25:17.436Z,30.4
2022-12-23T14:26:27.550Z,32.6
2022-12-23T14:27:37.698Z,30.7
2022-12-23T14:28:47.934Z,31.2
2022-12-23T14:29:58.038Z,31.2
2022-12-23T14:31:08.257Z,31.5
2022-12-23T14:32:18.416Z,30.5
2022-12-23T14:33:28.565Z,32.3
2022-12-23T14:34:38.687Z,31.6
2022-12-23T14:35:48.912Z,31.6
2022-12-23T14:36:59.073Z,29.8
2022-12-23T14:38:09.194Z,32
2022-12-23T14:39:19.354Z,30.3
2022-12-23T14:40:29.597Z,31.9
2022-12-23T14:41:39.828Z,31
2022-12-23T14:42:50.165Z,31.6
2022-12-23T14:44:00.328Z,33.1
2022-12-23T14:45:10.626Z,33.4
2022-12-23T14:46:20.885Z,37.8
2022-12-23T14:47:31.115Z,36.9
2022-12-23T14:48:41.303Z,33.7
2022-12-23T14:49:51.556Z,33.8
2022-12-23T14:51:01.852Z,35.5
2022-12-23T14:52:12.087Z,33.6
2022-12-23T14:53:22.336Z,33
2022-12-23T14:54:32.604Z,34.6
2022-12-23T14:55:42.966Z,34.1
2022-12-23T14:57:19.575Z,37.2
2022-12-23T14:58:29.958Z,32.9
2022-12-23T14:59:40.377Z,32.6
2022-12-23T15:00:50.877Z,35.1
2022-12-23T15:02:01.246Z,32.6
2022-12-23T15:03:11.756Z,36.5
2022-12-23T15:04:22.129Z,34.1
2022-12-23T15:05:32.589Z,35.5
2022-12-23T15:06:42.952Z,35
2022-12-23T15:07:53.477Z,39.9
2022-12-23T15:09:03.829Z,35
2022-12-23T15:10:14.321Z,37.1
2022-12-23T15:12:52.624Z,34.1
2022-12-23T15:14:06.812Z,37
2022-12-23T15:15:20.878Z,34.6
2022-12-23T15:16:30.760Z,37.1
2022-12-23T15:17:40.900Z,41.1
2022-12-23T15:18:51.039Z,39
2022-12-23T15:20:01.199Z,35
2022-12-23T15:21:11.406Z,34.4
2022-12-23T15:22:21.498Z,29.3
2022-12-23T15:23:31.734Z,28.5
2022-12-23T15:24:41.832Z,32.4
2022-12-23T15:25:52.025Z,35
2022-12-23T15:27:02.166Z,40.3
2022-12-23T15:28:12.318Z,39.5
2022-12-23T15:29:22.498Z,39.8
2022-12-23T15:30:32.667Z,34.2
2022-12-23T15:31:42.797Z,30.4
2022-12-23T15:32:53.087Z,32.4
2022-12-23T15:34:03.138Z,60.8
2022-12-23T15:35:13.364Z,79.1
2022-12-23T15:36:23.545Z,91.4
2022-12-23T15:37:33.740Z,76.8
2022-12-23T15:38:43.781Z,66.8
2022-12-23T15:39:54.018Z,63.8
2022-12-23T15:41:04.178Z,71.4
2022-12-23T15:42:14.286Z,60.7
2022-12-23T15:43:24.449Z,51.7
2022-12-23T15:44:34.629Z,48.9
2022-12-23T15:45:44.846Z,51.2
2022-12-23T15:46:55.141Z,50.8
2022-12-23T15:48:05.417Z,49.8
2022-12-23T15:49:15.600Z,47.6
2022-12-23T15:50:25.843Z,47.7
2022-12-23T15:51:36.126Z,44.8
2022-12-23T15:52:46.324Z,43.1
2022-12-23T15:53:56.604Z,40.8
2022-12-23T15:55:06.882Z,39.2
2022-12-23T15:56:17.055Z,40.4
2022-12-23T15:57:27.331Z,35
2022-12-23T15:58:37.550Z,39.9
2022-12-23T15:59:47.824Z,34.9
2022-12-23T16:00:58.273Z,37.9
2022-12-23T16:02:08.803Z,36.5
2022-12-23T16:03:19.139Z,37.5
2022-12-23T16:04:29.546Z,35.9
2022-12-23T16:05:39.963Z,37.2